createdAt,value
2023-04-23T00:00:49.108Z,28.05
2023-04-23T00:03:27.411Z,28.48
2023-04-23T00:06:06.040Z,29.08
2023-04-23T00:08:43.734Z,28.30
2023-04-23T00:11:21.352Z,29.20
2023-04-23T00:14:00.988Z,28.13
2023-04-23T00:16:38.290Z,24.63
2023-04-23T00:19:14.913Z,28.58
2023-04-23T00:21:50.670Z,30.77
2023-04-23T00:24:26.547Z,27.15
2023-04-23T00:27:02.731Z,27.20
2023-04-23T00:29:41.652Z,28.25
2023-04-23T00:32:17.941Z,36.17
2023-04-23T00:34:54.845Z,31.80
2023-04-23T00:37:31.074Z,29.40
2023-04-23T00:40:11.351Z,31.63
2023-04-23T00:42:49.734Z,33.42
2023-04-23T00:45:28.956Z,30.65
2023-04-23T00:48:06.603Z,30.43
2023-04-23T00:50:41.021Z,29.08
2023-04-23T00:53:19.590Z,29.67
2023-04-23T00:55:54.924Z,25.90
2023-04-23T00:58:29.628Z,26.00
2023-04-23T01:01:09.082Z,28.77
2023-04-23T01:03:45.854Z,29.63
2023-04-23T01:06:22.127Z,27.50
2023-04-23T01:09:03.483Z,26.73
2023-04-23T01:11:39.743Z,30.70
2023-04-23T01:14:15.701Z,26.23
2023-04-23T01:17:12.597Z,29.83
2023-04-23T01:19:47.931Z,28.85
2023-04-23T01:22:28.274Z,26.00
2023-04-23T01:25:08.522Z,28.90
2023-04-23T01:27:46.178Z,31.50
2023-04-23T01:30:22.528Z,29.95
2023-04-23T01:32:58.891Z,26.92
2023-04-23T01:35:41.494Z,28.17
2023-04-23T01:38:23.098Z,26.40
2023-04-23T01:41:02.514Z,25.85
2023-04-23T01:43:38.690Z,27.55
2023-04-23T01:46:15.230Z,27.40
2023-04-23T01:48:51.247Z,29.50
2023-04-23T01:54:07.411Z,28.10
2023-04-23T01:56:44.690Z,28.05
2023-04-23T01:59:19.987Z,33.80
2023-04-23T02:01:58.440Z,34.63
2023-04-23T02:04:36.325Z,32.10
2023-04-23T02:07:14.669Z,30.05
2023-04-23T02:09:53.923Z,27.95
2023-04-23T02:12:29.444Z,34.17
2023-04-23T02:15:08.357Z,34.65
2023-04-23T02:17:44.340Z,32.53
2023-04-23T02:22:54.529Z,30.80
2023-04-23T02:25:34.182Z,28.75
2023-04-23T02:28:16.128Z,27.13
2023-04-23T02:30:52.222Z,29.05
2023-04-23T02:33:29.165Z,35.03
2023-04-23T02:36:04.910Z,34.63
2023-04-23T02:38:42.305Z,38.35
2023-04-23T02:41:21.950Z,36.00
2023-04-23T02:43:58.002Z,39.40
2023-04-23T02:49:13.461Z,38.95
2023-04-23T02:51:49.828Z,34.72
2023-04-23T02:54:32.875Z,32.58
2023-04-23T02:57:15.085Z,29.03
2023-04-23T02:59:53.645Z,29.33
2023-04-23T03:02:33.003Z,28.20
2023-04-23T03:05:11.482Z,33.00
2023-04-23T03:07:49.562Z,29.95
2023-04-23T03:13:02.498Z,30.23
2023-04-23T03:15:40.793Z,28.27
2023-04-23T03:18:17.844Z,32.42
2023-04-23T03:20:54.365Z,31.50
2023-04-23T03:23:30.481Z,26.02
2023-04-23T03:28:43.823Z,30.77
2023-04-23T03:31:21.242Z,28.77
2023-04-23T03:33:58.291Z,27.13
2023-04-23T03:36:42.435Z,26.75
2023-04-23T03:39:21.606Z,30.67
2023-04-23T03:42:05.893Z,34.30
2023-04-23T03:44:47.175Z,31.00
2023-04-23T03:47:22.704Z,36.08
2023-04-23T03:50:00.376Z,34.30
2023-04-23T03:52:40.815Z,34.90
2023-04-23T03:55:23.434Z,34.42
2023-04-23T03:58:03.797Z,33.55
2023-04-23T04:00:57.982Z,33.78
2023-04-23T04:03:34.263Z,33.50
2023-04-23T04:06:10.396Z,34.20
2023-04-23T04:08:48.029Z,34.05
2023-04-23T04:11:23.381Z,34.20
2023-04-23T04:14:01.722Z,30.58
2023-04-23T04:16:41.289Z,25.98
2023-04-23T04:19:19.832Z,30.27
2023-04-23T04:21:56.929Z,25.08
2023-04-23T04:24:36.417Z,29.00
2023-04-23T04:27:14.726Z,27.85
2023-04-23T04:29:52.448Z,28.90
2023-04-23T04:32:31.739Z,27.00
2023-04-23T04:35:09.556Z,27.30
2023-04-23T04:37:49.638Z,25.30
2023-04-23T04:40:27.159Z,24.45
2023-04-23T04:43:02.445Z,25.75
2023-04-23T04:45:38.137Z,31.90
2023-04-23T04:48:17.895Z,24.10
2023-04-23T04:50:53.810Z,23.80
2023-04-23T04:53:31.290Z,25.50
2023-04-23T04:56:10.596Z,24.65
2023-04-23T04:58:46.796Z,24.38
2023-04-23T05:01:25.202Z,22.42
2023-04-23T05:04:04.151Z,28.88
2023-04-23T05:06:43.293Z,26.43
2023-04-23T05:09:24.980Z,25.05
2023-04-23T05:12:02.306Z,25.75
2023-04-23T05:14:39.437Z,23.25
2023-04-23T05:17:17.346Z,23.15
2023-04-23T05:19:59.732Z,27.48
2023-04-23T05:22:40.467Z,22.83
2023-04-23T05:25:15.500Z,26.45
2023-04-23T05:27:54.141Z,24.10
2023-04-23T05:30:35.426Z,22.57
2023-04-23T05:33:09.360Z,23.13
2023-04-23T05:35:46.280Z,24.10
2023-04-23T05:38:26.749Z,21.50
2023-04-23T05:41:04.683Z,23.77
2023-04-23T05:43:42.873Z,23.08
2023-04-23T05:46:21.505Z,19.92
2023-04-23T05:49:05.271Z,19.98
2023-04-23T05:51:46.576Z,19.37
2023-04-23T05:54:25.976Z,16.33
2023-04-23T05:57:04.119Z,18.63
2023-04-23T05:59:43.887Z,23.80
2023-04-23T06:02:21.439Z,15.57
2023-04-23T06:05:04.695Z,20.20
2023-04-23T06:07:44.181Z,16.93
2023-04-23T06:10:27.907Z,17.13
2023-04-23T06:13:06.402Z,17.15
2023-04-23T06:15:44.311Z,15.32
2023-04-23T06:18:19.598Z,13.38
2023-04-23T06:20:58.925Z,17.02
2023-04-23T06:23:37.472Z,18.48
2023-04-23T06:26:16.747Z,17.20
2023-04-23T06:29:02.233Z,13.68
2023-04-23T06:31:47.316Z,14.73
2023-04-23T06:34:44.012Z,12.23
2023-04-23T06:37:30.212Z,13.95
2023-04-23T06:40:05.812Z,14.15
2023-04-23T06:42:45.955Z,11.85
2023-04-23T06:45:47.266Z,13.52
2023-04-23T06:48:25.012Z,11.50
2023-04-23T06:51:03.587Z,16.35
2023-04-23T06:53:47.775Z,12.20
2023-04-23T06:56:27.666Z,14.70
2023-04-23T06:59:09.548Z,12.63
2023-04-23T07:01:55.193Z,11.95
2023-04-23T07:04:32.678Z,13.15
2023-04-23T07:07:12.788Z,16.83
2023-04-23T07:10:09.831Z,13.30
2023-04-23T07:13:06.543Z,12.57
2023-04-23T07:18:48.415Z,12.65
2023-04-23T07:21:22.553Z,10.15
2023-04-23T07:24:08.988Z,10.45
2023-04-23T07:26:43.256Z,11.15
2023-04-23T07:29:26.872Z,12.63
2023-04-23T07:32:08.879Z,12.57
2023-04-23T07:34:50.881Z,13.07
2023-04-23T07:37:30.799Z,13.32
2023-04-23T07:40:12.216Z,10.55
2023-04-23T07:43:08.454Z,10.35
2023-04-23T07:45:55.877Z,13.90
2023-04-23T07:48:39.078Z,6.82
2023-04-23T07:51:15.500Z,10.82
2023-04-23T07:53:57.805Z,9.63
2023-04-23T07:56:38.392Z,13.15
2023-04-23T07:59:16.596Z,6.80
2023-04-23T08:01:57.633Z,6.65
2023-04-23T08:04:42.060Z,6.97
2023-04-23T08:10:15.090Z,9.03
2023-04-23T08:12:54.948Z,8.23
2023-04-23T08:15:34.716Z,10.02
2023-04-23T08:18:33.018Z,11.88
2023-04-23T08:21:18.038Z,9.93
2023-04-23T08:23:59.829Z,9.57
2023-04-23T08:26:38.811Z,8.77
2023-04-23T08:29:17.487Z,9.70
2023-04-23T08:34:55.860Z,9.48
2023-04-23T08:43:53.987Z,8.05
2023-04-23T08:46:45.822Z,8.05
2023-04-23T09:17:26.582Z,8.57
2023-04-23T09:20:24.072Z,8.35
2023-04-23T09:23:02.432Z,6.63
2023-04-23T09:25:38.334Z,6.80
2023-04-23T09:28:17.178Z,9.57
2023-04-23T09:30:54.435Z,6.50
2023-04-23T09:33:34.354Z,6.70
2023-04-23T09:36:20.515Z,6.55
2023-04-23T09:39:00.998Z,7.97
2023-04-23T09:41:43.213Z,8.48
2023-04-23T09:44:49.683Z,7.03
2023-04-23T09:48:00.026Z,5.35
2023-04-23T09:50:57.575Z,9.02
2023-04-23T09:53:59.855Z,4.95
2023-04-23T10:47:26.625Z,5.55
2023-04-23T10:50:21.954Z,6.70
2023-04-23T10:53:09.614Z,5.03
2023-04-23T10:55:45.803Z,6.63
2023-04-23T10:58:28.128Z,6.32
2023-04-23T11:04:14.090Z,7.43
2023-04-23T11:07:17.189Z,5.85
2023-04-23T11:10:11.372Z,5.27
2023-04-23T11:12:56.093Z,6.45
2023-04-23T11:22:15.695Z,4.23
2023-04-23T12:03:58.976Z,4.28
2023-04-23T12:07:05.878Z,3.20
2023-04-23T12:09:58.994Z,4.32
2023-04-23T12:12:53.795Z,5.50
2023-04-23T12:15:51.913Z,5.50
2023-04-23T12:22:02.248Z,4.43
2023-04-23T12:27:48.941Z,9.47
2023-04-23T12:30:28.605Z,6.37
2023-04-23T12:33:16.223Z,11.65
2023-04-23T12:35:58.597Z,5.63
2023-04-23T12:38:44.039Z,8.30
2023-04-23T12:41:19.429Z,3.03
2023-04-23T12:43:59.290Z,4.25
2023-04-23T12:46:35.674Z,4.03
2023-04-23T12:49:14.688Z,4.57
2023-04-23T12:51:53.524Z,3.20
2023-04-23T12:54:33.243Z,2.85
2023-04-23T12:57:14.995Z,2.95
2023-04-23T12:59:55.499Z,5.60
2023-04-23T13:02:32.494Z,2.60
2023-04-23T13:05:10.560Z,2.60
2023-04-23T13:07:47.411Z,2.30
2023-04-23T13:10:37.463Z,3.60
2023-04-23T13:13:19.535Z,3.30
2023-04-23T13:16:00.538Z,8.23
2023-04-23T13:18:40.230Z,6.13
2023-04-23T13:21:16.585Z,7.95
2023-04-23T13:23:54.565Z,4.40
2023-04-23T13:26:33.522Z,3.60
2023-04-23T13:29:09.269Z,4.68
2023-04-23T13:34:22.885Z,4.90
2023-04-23T13:36:58.662Z,4.05
2023-04-23T13:39:41.451Z,8.70
2023-04-23T13:42:22.296Z,5.10
2023-04-23T13:44:58.260Z,2.67
2023-04-23T13:47:35.813Z,3.70
2023-04-23T13:50:15.985Z,8.07
2023-04-23T13:52:52.164Z,3.25
2023-04-23T13:55:28.958Z,2.55
2023-04-23T13:58:12.256Z,4.03
2023-04-23T14:00:47.393Z,2.60
2023-04-23T14:03:24.167Z,4.65
2023-04-23T14:06:02.871Z,6.63
2023-04-23T14:08:37.328Z,3.45
2023-04-23T14:11:15.530Z,3.00
2023-04-23T14:13:58.790Z,4.63
2023-04-23T14:16:32.877Z,7.30
2023-04-23T14:19:10.460Z,4.50
2023-04-23T14:21:46.886Z,4.78
2023-04-23T14:24:26.656Z,4.00
2023-04-23T14:27:03.807Z,3.05
2023-04-23T14:29:52.209Z,8.73
2023-04-23T14:32:33.099Z,4.10
2023-04-23T14:35:12.096Z,10.32
2023-04-23T14:37:47.673Z,4.50
2023-04-23T14:40:23.902Z,6.00
2023-04-23T14:43:14.051Z,5.90
2023-04-23T14:45:58.549Z,2.25
2023-04-23T14:48:34.285Z,6.90
2023-04-23T14:53:45.267Z,4.47
2023-04-23T14:56:23.725Z,11.65
2023-04-23T14:59:04.352Z,7.25
2023-04-23T15:01:39.127Z,6.93
2023-04-23T15:04:20.723Z,6.15
2023-04-23T15:06:57.276Z,6.50
2023-04-23T15:09:35.440Z,12.35
2023-04-23T15:12:16.821Z,5.85
2023-04-23T15:14:52.995Z,2.95
2023-04-23T15:22:49.975Z,5.93
2023-04-23T15:28:05.076Z,3.25
2023-04-23T15:30:41.235Z,3.03
2023-04-23T15:33:24.939Z,3.25
2023-04-23T15:36:30.570Z,4.23
2023-04-23T15:39:06.843Z,3.65
2023-04-23T15:41:44.759Z,7.53
2023-04-23T15:44:25.779Z,4.28
2023-04-23T15:47:00.363Z,4.10
2023-04-23T15:49:40.105Z,5.10
2023-04-23T15:52:23.054Z,4.18
2023-04-23T15:55:02.569Z,4.73
2023-04-23T15:57:38.876Z,4.93
2023-04-23T16:00:23.363Z,8.03
2023-04-23T16:03:06.240Z,4.20
2023-04-23T16:05:45.660Z,5.10
2023-04-23T16:08:28.936Z,4.65
2023-04-23T16:11:09.737Z,5.32
2023-04-23T16:13:47.172Z,4.07
2023-04-23T16:16:29.369Z,5.72
2023-04-23T16:19:11.384Z,3.93
2023-04-23T16:21:50.556Z,4.82
2023-04-23T16:24:55.463Z,5.22
2023-04-23T16:27:50.120Z,4.38
2023-04-23T16:30:31.846Z,4.83
2023-04-23T16:33:07.147Z,6.95
2023-04-23T16:35:56.658Z,6.90
2023-04-23T16:38:32.411Z,5.40
2023-04-23T16:41:16.218Z,6.75
2023-04-23T16:43:55.448Z,4.05
2023-04-23T16:46:36.029Z,4.00
2023-04-23T16:49:24.954Z,4.80
2023-04-23T16:52:04.622Z,4.35
2023-04-23T16:54:45.454Z,5.15
2023-04-23T16:57:27.023Z,7.30
2023-04-23T17:00:07.452Z,4.80
2023-04-23T17:02:47.903Z,4.70
2023-04-23T17:05:31.966Z,5.03
2023-04-23T17:08:16.630Z,5.57
2023-04-23T17:11:04.585Z,4.47
2023-04-23T17:13:47.384Z,6.43
2023-04-23T17:16:30.838Z,4.50
2023-04-23T17:19:10.148Z,4.53
2023-04-23T17:22:17.635Z,2.95
2023-04-23T17:24:57.409Z,3.47
2023-04-23T17:30:49.515Z,4.07
2023-04-23T17:33:40.853Z,2.85
2023-04-23T17:36:44.731Z,4.83
2023-04-23T17:42:39.034Z,3.40
2023-04-23T17:51:44.676Z,3.78
2023-04-23T17:57:19.337Z,4.05
2023-04-23T18:00:22.760Z,5.50
2023-04-23T18:03:05.388Z,5.60
2023-04-23T18:06:05.725Z,4.38
2023-04-23T18:08:45.933Z,6.15
2023-04-23T18:11:38.450Z,5.90
2023-04-23T18:14:17.054Z,6.10
2023-04-23T18:23:40.374Z,5.68
2023-04-23T18:32:41.069Z,5.43
2023-04-23T18:35:16.517Z,5.40
2023-04-23T18:37:58.377Z,4.38
2023-04-23T18:40:36.141Z,4.50
2023-04-23T18:43:19.375Z,4.13
2023-04-23T18:46:05.267Z,4.20
2023-04-23T18:49:09.607Z,4.25
2023-04-23T18:57:49.854Z,4.70
2023-04-23T19:00:38.369Z,4.50
2023-04-23T19:03:26.165Z,4.30
2023-04-23T19:06:16.061Z,4.78
2023-04-23T19:12:01.271Z,6.45
2023-04-23T19:14:50.080Z,7.13
2023-04-23T19:17:25.052Z,3.75
2023-04-23T19:20:11.906Z,3.75
2023-04-23T19:26:05.773Z,6.18
2023-04-23T19:31:53.162Z,4.05
2023-04-23T19:34:31.981Z,5.00
2023-04-23T19:37:18.465Z,4.40
2023-04-23T19:39:54.971Z,4.55
2023-04-23T19:42:42.383Z,4.00
2023-04-23T19:45:22.902Z,4.10
2023-04-23T19:48:13.766Z,8.52
2023-04-23T19:50:54.318Z,5.53
2023-04-23T19:53:31.854Z,4.65
2023-04-23T19:56:17.738Z,7.00
2023-04-23T19:59:13.981Z,8.05
2023-04-23T20:01:53.955Z,4.70
2023-04-23T20:04:40.557Z,6.60
2023-04-23T20:07:28.564Z,7.00
2023-04-23T20:10:06.248Z,4.45
2023-04-23T20:12:46.536Z,4.97
2023-04-23T20:15:29.809Z,4.70
2023-04-23T20:18:07.489Z,5.30
2023-04-23T20:20:50.207Z,5.40
2023-04-23T20:23:38.984Z,5.75
2023-04-23T20:26:28.145Z,7.15
2023-04-23T20:29:09.148Z,11.90
2023-04-23T20:31:53.590Z,9.40
2023-04-23T20:34:34.969Z,26.10
2023-04-23T20:37:35.087Z,38.77
2023-04-23T20:40:23.463Z,33.45
2023-04-23T20:43:14.183Z,50.92
2023-04-23T20:45:51.815Z,85.18
2023-04-23T20:48:37.925Z,90.05
2023-04-23T20:51:20.772Z,25.05
2023-04-23T20:53:58.050Z,21.80
2023-04-23T20:56:36.025Z,17.65
2023-04-23T20:59:20.349Z,16.95
2023-04-23T21:01:59.076Z,15.68
2023-04-23T21:04:41.353Z,14.70
2023-04-23T21:07:19.889Z,17.40
2023-04-23T21:10:06.076Z,10.10
2023-04-23T21:12:44.625Z,11.30
2023-04-23T21:15:38.382Z,9.48
2023-04-23T21:18:19.471Z,9.02
2023-04-23T21:21:03.963Z,13.40
2023-04-23T21:23:46.436Z,9.80
2023-04-23T21:26:28.055Z,12.20
2023-04-23T21:29:06.181Z,8.15
2023-04-23T21:38:47.164Z,10.63
2023-04-23T21:41:59.548Z,11.25
2023-04-23T21:44:35.999Z,12.40
2023-04-23T21:47:38.612Z,10.25
2023-04-23T21:50:18.159Z,12.77
2023-04-23T21:53:00.810Z,10.65
2023-04-23T21:55:40.762Z,8.87
2023-04-23T22:01:37.743Z,11.30
2023-04-23T22:04:28.717Z,11.65
2023-04-23T22:07:20.622Z,11.20
2023-04-23T22:10:20.420Z,13.10
2023-04-23T22:13:00.121Z,12.85
2023-04-23T22:16:28.014Z,11.57
2023-04-23T22:19:28.060Z,11.13
2023-04-23T22:24:55.685Z,10.88
2023-04-23T22:27:40.110Z,13.45
2023-04-23T22:36:44.252Z,10.07
2023-04-23T23:02:16.594Z,16.85
2023-04-23T23:04:59.643Z,14.63
2023-04-23T23:07:35.032Z,13.70
2023-04-23T23:10:16.036Z,16.70
2023-04-23T23:12:55.473Z,17.50
2023-04-23T23:15:40.631Z,14.02
2023-04-23T23:18:21.534Z,17.40
2023-04-23T23:21:13.560Z,16.33
2023-04-23T23:23:58.463Z,16.15
2023-04-23T23:26:43.782Z,15.00
2023-04-23T23:29:24.066Z,15.73
2023-04-23T23:32:23.326Z,16.20
2023-04-23T23:35:08.714Z,15.20
2023-04-23T23:40:55.288Z,14.27
2023-04-23T23:43:37.245Z,16.83
2023-04-23T23:46:19.174Z,16.20
2023-04-23T23:49:00.948Z,17.40
2023-04-23T23:51:49.890Z,16.42
2023-04-23T23:57:38.884Z,19.75
